createdAt,value
2023-08-03T00:00:34.337Z,96.33
2023-08-03T00:03:01.529Z,95.92
2023-08-03T00:05:31.193Z,96.11
2023-08-03T00:07:58.061Z,96.08
2023-08-03T00:10:24.940Z,95.90
2023-08-03T00:12:54.986Z,95.29
2023-08-03T00:15:22.012Z,95.36
2023-08-03T00:17:49.039Z,95.25
2023-08-03T00:20:16.296Z,95.53
2023-08-03T00:22:47.776Z,95.12
2023-08-03T00:25:14.977Z,95.05
2023-08-03T00:27:42.015Z,95.30
2023-08-03T00:30:09.151Z,95.33
2023-08-03T00:32:36.286Z,94.86
2023-08-03T00:35:03.202Z,95.52
2023-08-03T00:37:30.765Z,96.48
2023-08-03T00:39:57.762Z,97.33
2023-08-03T00:42:24.819Z,97.21
2023-08-03T00:44:51.776Z,97.42
2023-08-03T00:47:18.723Z,97.69
2023-08-03T00:49:46.010Z,98.33
2023-08-03T00:52:12.838Z,98.80
2023-08-03T00:54:40.472Z,99.35
2023-08-03T00:57:10.149Z,100.00
2023-08-03T00:59:37.164Z,100.00
2023-08-03T01:02:04.763Z,100.00
2023-08-03T01:04:31.571Z,100.00
2023-08-03T01:06:58.890Z,100.00
2023-08-03T01:09:25.736Z,100.00
2023-08-03T01:11:52.915Z,100.00
2023-08-03T01:14:19.907Z,100.00
2023-08-03T01:16:46.984Z,100.00
2023-08-03T01:19:15.067Z,100.00
2023-08-03T01:21:44.109Z,100.00
2023-08-03T01:24:11.999Z,100.00
2023-08-03T01:26:39.388Z,100.00
2023-08-03T01:29:06.812Z,100.00
2023-08-03T01:31:35.106Z,100.00
2023-08-03T01:34:02.638Z,100.00
2023-08-03T01:36:29.840Z,100.00
2023-08-03T01:39:10.142Z,100.00
2023-08-03T01:41:39.839Z,100.00
2023-08-03T01:44:23.350Z,100.00
2023-08-03T01:46:51.408Z,100.00
2023-08-03T01:49:18.920Z,100.00
2023-08-03T01:51:46.233Z,100.00
2023-08-03T01:54:14.045Z,100.00
2023-08-03T01:56:41.050Z,100.00
2023-08-03T01:59:08.009Z,100.00
2023-08-03T02:01:35.232Z,100.00
2023-08-03T02:04:02.272Z,100.00
2023-08-03T02:06:29.301Z,100.00
2023-08-03T02:08:56.125Z,100.00
2023-08-03T02:11:23.117Z,100.00
2023-08-03T02:13:50.280Z,100.00
2023-08-03T02:16:24.690Z,100.00
2023-08-03T02:18:53.905Z,100.00
2023-08-03T02:21:20.761Z,100.00
2023-08-03T02:23:47.672Z,100.00
2023-08-03T02:26:14.755Z,100.00
2023-08-03T02:28:41.736Z,100.00
2023-08-03T02:31:08.626Z,100.00
2023-08-03T02:33:35.656Z,100.00
2023-08-03T02:36:02.728Z,100.00
2023-08-03T02:38:29.681Z,100.00
2023-08-03T02:40:59.225Z,100.00
2023-08-03T02:43:28.644Z,100.00
2023-08-03T02:45:55.922Z,100.00
2023-08-03T02:48:22.921Z,100.00
2023-08-03T02:50:50.041Z,100.00
2023-08-03T02:53:17.061Z,100.00
2023-08-03T02:55:44.127Z,100.00
2023-08-03T02:58:33.180Z,100.00
2023-08-03T03:01:01.677Z,100.00
2023-08-03T03:03:29.090Z,100.00
2023-08-03T03:05:56.393Z,100.00
2023-08-03T03:08:23.432Z,100.00
2023-08-03T03:10:50.383Z,100.00
2023-08-03T03:13:17.247Z,100.00
2023-08-03T03:15:44.134Z,100.00
2023-08-03T03:18:10.933Z,100.00
2023-08-03T03:20:37.882Z,100.00
2023-08-03T03:23:04.944Z,100.00
2023-08-03T03:25:34.061Z,100.00
2023-08-03T03:28:05.960Z,100.00
2023-08-03T03:30:33.538Z,100.00
2023-08-03T03:33:01.171Z,100.00
2023-08-03T03:35:28.296Z,100.00
2023-08-03T03:37:55.402Z,100.00
2023-08-03T03:40:22.448Z,100.00
2023-08-03T03:42:49.310Z,100.00
2023-08-03T03:45:16.387Z,100.00
2023-08-03T03:47:43.535Z,100.00
2023-08-03T03:50:11.087Z,100.00
2023-08-03T03:52:38.400Z,100.00
2023-08-03T03:55:05.839Z,100.00
2023-08-03T03:57:33.477Z,100.00
2023-08-03T04:00:00.399Z,100.00
2023-08-03T04:02:27.539Z,100.00
2023-08-03T04:04:54.765Z,100.00
2023-08-03T04:07:21.764Z,100.00
2023-08-03T04:09:48.851Z,100.00
2023-08-03T04:12:19.656Z,100.00
2023-08-03T04:14:46.789Z,100.00
2023-08-03T04:17:13.816Z,100.00
2023-08-03T04:19:40.994Z,100.00
2023-08-03T04:22:07.906Z,100.00
2023-08-03T04:24:35.127Z,100.00
2023-08-03T04:27:02.233Z,100.00
2023-08-03T04:29:29.309Z,100.00
2023-08-03T04:31:56.368Z,99.35
2023-08-03T04:34:23.448Z,99.48
2023-08-03T04:36:50.367Z,99.46
2023-08-03T04:39:17.309Z,99.47
2023-08-03T04:41:44.932Z,99.58
2023-08-03T04:44:12.331Z,98.68
2023-08-03T04:46:39.519Z,98.53
2023-08-03T04:49:06.546Z,98.46
2023-08-03T04:51:33.562Z,98.07
2023-08-03T04:54:00.703Z,98.17
2023-08-03T04:56:30.420Z,97.92
2023-08-03T04:58:57.485Z,98.89
2023-08-03T05:01:24.512Z,97.86
2023-08-03T05:03:51.548Z,98.69
2023-08-03T05:06:18.734Z,98.15
2023-08-03T05:08:45.730Z,99.03
2023-08-03T05:11:12.702Z,99.21
2023-08-03T05:13:39.865Z,99.51
2023-08-03T05:16:06.867Z,99.30
2023-08-03T05:18:33.682Z,99.68
2023-08-03T05:21:00.720Z,100.00
2023-08-03T05:23:27.663Z,100.00
2023-08-03T05:25:58.832Z,100.00
2023-08-03T05:28:26.678Z,99.76
2023-08-03T05:30:53.771Z,99.34
2023-08-03T05:33:23.137Z,99.33
2023-08-03T05:35:51.373Z,99.43
2023-08-03T05:38:18.789Z,100.00
2023-08-03T05:40:45.821Z,100.00
2023-08-03T05:43:17.331Z,100.00
2023-08-03T05:45:46.041Z,99.77
2023-08-03T05:48:17.870Z,99.59
2023-08-03T05:50:51.104Z,99.48
2023-08-03T05:53:19.608Z,99.18
2023-08-03T05:55:57.857Z,99.41
2023-08-03T05:58:37.693Z,98.78
2023-08-03T06:01:04.686Z,98.13
2023-08-03T06:03:35.925Z,97.90
2023-08-03T06:06:06.306Z,97.48
2023-08-03T06:08:34.429Z,97.30
2023-08-03T06:11:05.874Z,98.04
2023-08-03T06:13:36.702Z,98.04
2023-08-03T06:16:05.869Z,98.21
2023-08-03T06:18:36.201Z,99.00
2023-08-03T06:21:05.892Z,98.60
2023-08-03T06:23:32.945Z,98.34
2023-08-03T06:26:00.810Z,97.67
2023-08-03T06:28:31.150Z,96.67
2023-08-03T06:30:57.989Z,95.78
2023-08-03T06:33:25.098Z,95.30
2023-08-03T06:35:56.385Z,94.55
2023-08-03T06:38:24.166Z,92.86
2023-08-03T06:40:52.124Z,92.61
2023-08-03T06:43:19.242Z,91.54
2023-08-03T06:45:46.772Z,90.30
2023-08-03T06:48:16.262Z,88.07
2023-08-03T06:50:43.595Z,86.51
2023-08-03T06:53:11.674Z,83.73
2023-08-03T06:55:38.512Z,79.68
2023-08-03T06:58:05.665Z,78.31
2023-08-03T07:00:32.645Z,75.92
2023-08-03T07:03:00.249Z,76.00
2023-08-03T07:05:27.328Z,75.50
2023-08-03T07:07:54.220Z,73.52
2023-08-03T07:10:21.126Z,71.90
2023-08-03T07:12:48.570Z,71.09
2023-08-03T07:15:15.436Z,71.74
2023-08-03T07:17:42.407Z,73.76
2023-08-03T07:20:10.353Z,74.88
2023-08-03T07:22:37.661Z,74.34
2023-08-03T07:25:05.427Z,76.69
2023-08-03T07:27:33.251Z,77.48
2023-08-03T07:30:01.045Z,78.05
2023-08-03T07:32:28.384Z,78.36
2023-08-03T07:34:55.587Z,79.09
2023-08-03T07:37:22.736Z,78.94
2023-08-03T07:39:49.535Z,76.40
2023-08-03T07:42:16.475Z,74.37
2023-08-03T07:47:14.617Z,75.52
2023-08-03T07:49:41.849Z,74.20
2023-08-03T07:52:09.197Z,73.24
2023-08-03T07:54:36.260Z,73.26
2023-08-03T07:57:03.181Z,73.22
2023-08-03T07:59:30.281Z,73.85
2023-08-03T08:01:57.431Z,74.51
2023-08-03T08:04:24.656Z,74.52
2023-08-03T08:06:51.754Z,74.66
2023-08-03T08:09:18.798Z,79.16
2023-08-03T08:11:46.155Z,81.79
2023-08-03T08:14:13.293Z,83.98
2023-08-03T08:16:40.422Z,83.24
2023-08-03T08:19:07.450Z,81.59
2023-08-03T08:21:34.476Z,82.06
2023-08-03T08:24:01.711Z,83.56
2023-08-03T08:26:30.173Z,84.12
2023-08-03T08:29:04.483Z,86.26
2023-08-03T08:34:03.762Z,87.91
2023-08-03T08:36:30.786Z,89.71
2023-08-03T08:38:57.817Z,89.43
2023-08-03T08:41:25.836Z,89.50
2023-08-03T08:43:52.948Z,89.04
2023-08-03T08:46:20.388Z,89.25
2023-08-03T08:48:50.684Z,89.15
2023-08-03T08:51:57.038Z,89.01
2023-08-03T09:01:54.947Z,86.35
2023-08-03T09:04:32.352Z,86.18
2023-08-03T09:07:00.873Z,85.86
2023-08-03T09:09:37.845Z,87.04
2023-08-03T09:12:07.829Z,85.84
2023-08-03T09:14:52.412Z,86.96
2023-08-03T09:17:21.484Z,86.36
2023-08-03T09:25:10.041Z,87.79
2023-08-03T09:30:18.433Z,87.04
2023-08-03T09:35:26.952Z,87.11
2023-08-03T09:37:54.940Z,86.10
2023-08-03T09:40:22.394Z,85.82
2023-08-03T09:42:50.530Z,84.63
2023-08-03T09:47:52.715Z,80.90
2023-08-03T09:50:20.428Z,78.34
2023-08-03T09:52:50.364Z,76.42
2023-08-03T09:55:28.478Z,78.75
2023-08-03T09:58:08.333Z,82.75
2023-08-03T10:00:39.643Z,85.58
2023-08-03T10:03:14.329Z,86.37
2023-08-03T10:05:52.568Z,87.57
2023-08-03T10:08:47.104Z,88.95
2023-08-03T10:11:15.196Z,87.65
2023-08-03T10:13:47.992Z,87.01
2023-08-03T10:16:17.300Z,87.00
2023-08-03T10:21:17.167Z,86.55
2023-08-03T10:24:13.169Z,88.20
2023-08-03T10:26:41.758Z,86.26
2023-08-03T10:29:08.833Z,83.88
2023-08-03T10:31:56.108Z,80.41
2023-08-03T10:34:28.027Z,75.50
2023-08-03T10:36:57.539Z,67.93
2023-08-03T10:39:53.038Z,55.67
2023-08-03T10:42:25.347Z,52.94
2023-08-03T10:44:52.792Z,51.15
2023-08-03T10:47:27.058Z,51.45
2023-08-03T10:49:55.772Z,52.77
2023-08-03T10:52:26.217Z,58.95
2023-08-03T10:54:53.611Z,65.88
2023-08-03T10:57:26.613Z,68.60
2023-08-03T10:59:58.753Z,70.88
2023-08-03T11:02:31.893Z,71.53
2023-08-03T11:05:08.479Z,74.58
2023-08-03T11:07:36.459Z,77.35
2023-08-03T11:10:05.799Z,80.12
2023-08-03T11:12:33.281Z,81.32
2023-08-03T11:15:03.895Z,81.09
2023-08-03T11:17:33.522Z,81.14
2023-08-03T11:20:02.286Z,81.48
2023-08-03T11:22:31.007Z,81.07
2023-08-03T11:25:05.025Z,81.67
2023-08-03T11:27:33.140Z,80.32
2023-08-03T11:30:00.904Z,80.00
2023-08-03T11:32:30.303Z,79.55
2023-08-03T11:35:02.114Z,77.55
2023-08-03T11:37:33.345Z,70.66
2023-08-03T11:40:02.215Z,58.65
2023-08-03T11:42:30.175Z,51.14
2023-08-03T11:44:57.692Z,41.10
2023-08-03T11:47:25.289Z,34.31
2023-08-03T11:49:57.790Z,35.21
2023-08-03T11:52:25.163Z,42.98
2023-08-03T11:54:52.194Z,51.31
2023-08-03T11:57:40.041Z,55.96
2023-08-03T12:00:08.092Z,61.74
2023-08-03T12:02:43.396Z,62.23
2023-08-03T12:05:17.120Z,59.59
2023-08-03T12:10:24.274Z,56.50
2023-08-03T12:12:51.351Z,53.40
2023-08-03T12:15:18.409Z,48.09
2023-08-03T12:17:45.480Z,48.85
2023-08-03T12:20:12.461Z,49.73
2023-08-03T12:22:39.404Z,51.64
2023-08-03T12:25:06.664Z,54.61
2023-08-03T12:30:04.979Z,53.94
2023-08-03T12:32:33.539Z,55.46
2023-08-03T12:35:00.821Z,55.39
2023-08-03T12:37:27.757Z,56.14
2023-08-03T12:39:54.745Z,61.14
2023-08-03T12:42:22.819Z,64.63
2023-08-03T12:44:50.038Z,67.79
2023-08-03T12:47:17.007Z,71.13
2023-08-03T12:49:44.102Z,73.10
2023-08-03T12:52:11.229Z,74.18
2023-08-03T12:54:38.198Z,74.82
2023-08-03T12:57:05.251Z,73.05
2023-08-03T12:59:32.756Z,71.25
2023-08-03T13:02:00.937Z,67.52
2023-08-03T13:04:28.245Z,66.61
2023-08-03T13:06:55.161Z,63.45
2023-08-03T13:09:22.306Z,61.77
2023-08-03T13:11:49.957Z,63.58
2023-08-03T13:14:16.749Z,64.36
2023-08-03T13:16:43.995Z,63.87
2023-08-03T13:19:14.858Z,65.01
2023-08-03T13:21:41.931Z,69.90
2023-08-03T13:24:09.205Z,73.84
2023-08-03T13:26:36.122Z,74.61
2023-08-03T13:29:03.057Z,76.77
2023-08-03T13:31:30.262Z,75.67
2023-08-03T13:33:57.394Z,70.99
2023-08-03T13:36:24.348Z,70.81
2023-08-03T13:38:51.369Z,75.21
2023-08-03T13:41:19.258Z,78.04
2023-08-03T13:43:46.121Z,80.05
2023-08-03T13:46:13.286Z,78.83
2023-08-03T13:48:40.203Z,77.85
2023-08-03T13:51:07.329Z,72.83
2023-08-03T13:53:34.273Z,72.92
2023-08-03T13:56:01.250Z,73.80
2023-08-03T13:58:46.616Z,73.35
2023-08-03T14:01:15.346Z,71.28
2023-08-03T14:03:43.009Z,70.41
2023-08-03T14:21:18.542Z,65.68
2023-08-03T14:24:01.573Z,63.63
2023-08-03T14:26:29.013Z,65.18
2023-08-03T14:31:25.986Z,59.67
2023-08-03T14:33:53.247Z,59.60
2023-08-03T14:36:20.458Z,58.28
2023-08-03T14:38:47.895Z,61.50
2023-08-03T14:41:17.774Z,58.98
2023-08-03T14:43:45.636Z,61.80
2023-08-03T14:46:13.514Z,60.12
2023-08-03T14:48:40.810Z,60.51
2023-08-03T14:53:37.845Z,59.74
2023-08-03T15:01:11.168Z,60.17
2023-08-03T15:03:39.155Z,62.37
2023-08-03T15:06:24.401Z,60.68
2023-08-03T15:08:53.111Z,61.37
2023-08-03T15:11:21.829Z,59.47
2023-08-03T15:13:48.678Z,58.49
2023-08-03T15:16:29.081Z,60.75
2023-08-03T15:18:57.706Z,60.68
2023-08-03T15:21:27.971Z,61.05
2023-08-03T15:23:59.255Z,61.79
2023-08-03T15:26:33.913Z,61.84
2023-08-03T15:29:04.774Z,60.07
2023-08-03T15:31:42.898Z,60.55
2023-08-03T15:34:14.180Z,61.77
2023-08-03T15:36:46.691Z,62.63
2023-08-03T15:39:15.891Z,64.54
2023-08-03T15:41:50.097Z,64.35
2023-08-03T15:44:22.471Z,61.44
2023-08-03T15:47:13.897Z,62.89
2023-08-03T15:49:38.466Z,61.89
2023-08-03T15:52:12.559Z,62.06
2023-08-03T15:54:47.488Z,62.30
2023-08-03T15:57:18.638Z,65.50
2023-08-03T15:59:45.959Z,64.33
2023-08-03T16:02:13.429Z,63.52
2023-08-03T16:04:40.636Z,66.81
2023-08-03T16:07:07.908Z,64.49
2023-08-03T16:09:34.662Z,64.73
2023-08-03T16:12:01.734Z,64.95
2023-08-03T16:14:28.717Z,62.43
2023-08-03T16:16:55.697Z,64.62
2023-08-03T16:19:23.000Z,61.88
2023-08-03T16:21:50.036Z,62.95
2023-08-03T16:24:17.077Z,65.62
2023-08-03T16:26:45.336Z,64.57
2023-08-03T16:29:12.628Z,63.83
2023-08-03T16:31:52.907Z,64.39
2023-08-03T16:34:22.640Z,63.51
2023-08-03T16:36:54.415Z,64.91
2023-08-03T16:39:21.382Z,66.65
2023-08-03T16:41:48.948Z,68.02
2023-08-03T16:44:15.698Z,68.07
2023-08-03T16:46:43.866Z,67.73
2023-08-03T16:49:11.454Z,67.86
2023-08-03T16:51:38.527Z,68.41
2023-08-03T16:54:10.582Z,68.02
2023-08-03T16:56:37.545Z,67.69
2023-08-03T16:59:04.481Z,68.17
2023-08-03T17:01:31.514Z,67.83
2023-08-03T17:03:59.618Z,68.58
2023-08-03T17:06:26.729Z,69.18
2023-08-03T17:08:57.407Z,69.58
2023-08-03T17:11:24.560Z,70.62
2023-08-03T17:13:51.489Z,72.36
2023-08-03T17:16:18.571Z,73.48
2023-08-03T17:18:45.531Z,72.07
2023-08-03T17:21:12.661Z,73.10
2023-08-03T17:23:39.633Z,72.76
2023-08-03T17:26:06.679Z,74.46
2023-08-03T17:28:33.742Z,74.37
2023-08-03T17:31:04.823Z,73.83
2023-08-03T17:33:32.257Z,73.43
2023-08-03T17:35:59.723Z,72.75
2023-08-03T17:38:28.739Z,73.26
2023-08-03T17:40:56.382Z,74.47
2023-08-03T17:43:24.954Z,74.18
2023-08-03T17:45:52.183Z,75.33
2023-08-03T17:48:21.865Z,75.84
2023-08-03T17:50:48.813Z,75.57
2023-08-03T17:53:16.661Z,76.48
2023-08-03T17:55:43.631Z,76.48
2023-08-03T17:58:10.704Z,75.85
2023-08-03T18:00:37.793Z,76.63
2023-08-03T18:03:04.947Z,77.37
2023-08-03T18:05:32.187Z,77.98
2023-08-03T18:07:59.056Z,78.14
2023-08-03T18:10:25.916Z,78.77
2023-08-03T18:12:53.237Z,78.75
2023-08-03T18:15:20.174Z,78.87
2023-08-03T18:17:47.206Z,78.83
2023-08-03T18:20:14.327Z,78.60
2023-08-03T18:22:41.263Z,79.24
2023-08-03T18:25:08.520Z,80.21
2023-08-03T18:27:35.804Z,80.25
2023-08-03T18:30:05.864Z,80.84
2023-08-03T18:32:33.021Z,81.08
2023-08-03T18:35:00.157Z,81.61
2023-08-03T18:37:27.364Z,81.80
2023-08-03T18:39:55.462Z,81.84
2023-08-03T18:42:22.569Z,82.43
2023-08-03T18:44:49.688Z,83.09
2023-08-03T18:47:16.635Z,83.24
2023-08-03T18:49:43.588Z,82.81
2023-08-03T18:52:10.856Z,83.10
2023-08-03T18:54:37.729Z,82.51
2023-08-03T18:57:04.925Z,83.16
2023-08-03T18:59:31.764Z,83.19
2023-08-03T19:01:58.949Z,83.33
2023-08-03T19:04:26.015Z,83.42
2023-08-03T19:06:52.928Z,83.58
2023-08-03T19:09:20.006Z,84.16
2023-08-03T19:11:47.013Z,84.30
2023-08-03T19:14:13.908Z,85.00
2023-08-03T19:16:40.837Z,85.24
2023-08-03T19:19:08.193Z,85.03
2023-08-03T19:21:35.054Z,85.03
2023-08-03T19:24:02.386Z,85.28
2023-08-03T19:26:30.168Z,85.38
2023-08-03T19:28:57.325Z,84.74
2023-08-03T19:31:24.289Z,85.39
2023-08-03T19:33:51.236Z,86.84
2023-08-03T19:36:20.088Z,87.20
2023-08-03T19:38:49.230Z,87.21
2023-08-03T19:41:16.258Z,87.39
2023-08-03T19:43:43.274Z,87.11
2023-08-03T19:46:13.592Z,87.02
2023-08-03T19:48:40.667Z,86.92
2023-08-03T20:11:09.945Z,86.56
2023-08-03T20:13:56.150Z,86.67
2023-08-03T20:21:29.068Z,87.05
2023-08-03T20:23:57.872Z,86.25
2023-08-03T20:26:34.529Z,86.21
2023-08-03T20:29:05.032Z,85.12
2023-08-03T20:31:33.377Z,85.51
2023-08-03T20:34:11.444Z,87.16
2023-08-03T20:36:39.183Z,87.27
2023-08-03T20:39:17.162Z,88.18
2023-08-03T20:41:54.055Z,88.75
2023-08-03T20:49:41.322Z,89.58
2023-08-03T20:52:08.458Z,89.02
2023-08-03T20:57:05.744Z,90.95
2023-08-03T20:59:32.854Z,90.95
2023-08-03T21:01:59.859Z,91.23
2023-08-03T21:04:27.079Z,91.24
2023-08-03T21:06:54.132Z,92.35
2023-08-03T21:09:21.113Z,93.32
2023-08-03T21:11:48.098Z,93.31
2023-08-03T21:14:15.142Z,93.85
2023-08-03T21:16:42.222Z,93.46
2023-08-03T21:19:10.658Z,93.42
2023-08-03T21:21:37.638Z,94.03
2023-08-03T21:24:09.564Z,94.29
2023-08-03T21:26:39.608Z,95.21
2023-08-03T21:29:06.811Z,95.40
2023-08-03T21:31:38.389Z,95.71
2023-08-03T21:34:06.360Z,95.54
2023-08-03T21:36:33.248Z,96.05
2023-08-03T21:39:00.134Z,96.03
2023-08-03T21:41:26.841Z,96.38
2023-08-03T21:43:53.627Z,96.28
2023-08-03T21:46:20.959Z,96.38
2023-08-03T21:48:48.018Z,95.97
2023-08-03T21:51:15.830Z,95.78
2023-08-03T21:53:45.298Z,95.26
2023-08-03T21:56:17.407Z,95.04
2023-08-03T21:58:44.970Z,95.04
2023-08-03T22:01:12.618Z,94.76
2023-08-03T22:03:39.721Z,95.02
2023-08-03T22:06:06.818Z,93.83
2023-08-03T22:08:35.457Z,93.55
2023-08-03T22:11:02.459Z,92.69
2023-08-03T22:13:29.828Z,92.52
2023-08-03T22:15:56.817Z,92.93
2023-08-03T22:18:24.158Z,93.20
2023-08-03T22:20:50.998Z,92.95
2023-08-03T22:23:17.831Z,93.38
2023-08-03T22:25:44.797Z,93.43
2023-08-03T22:28:11.795Z,93.09
2023-08-03T22:30:42.038Z,93.76
2023-08-03T22:33:08.948Z,93.92
2023-08-03T22:35:35.955Z,94.04
2023-08-03T22:38:03.253Z,93.53
2023-08-03T22:40:30.345Z,93.83
2023-08-03T22:42:58.499Z,92.63
2023-08-03T22:45:25.621Z,92.61
2023-08-03T22:48:11.379Z,92.66
2023-08-03T22:50:39.907Z,92.43
2023-08-03T22:53:07.134Z,91.42
2023-08-03T22:55:33.959Z,91.53
2023-08-03T22:58:02.332Z,92.25
2023-08-03T23:00:32.616Z,91.79
2023-08-03T23:02:59.657Z,90.70
2023-08-03T23:05:26.803Z,89.74
2023-08-03T23:07:53.870Z,89.10
2023-08-03T23:10:20.895Z,88.56
2023-08-03T23:12:47.813Z,87.68
2023-08-03T23:15:16.161Z,87.43
2023-08-03T23:17:43.500Z,87.00
2023-08-03T23:20:10.874Z,86.72
2023-08-03T23:22:37.892Z,86.26
2023-08-03T23:25:05.120Z,86.32
2023-08-03T23:27:31.880Z,86.32
2023-08-03T23:29:58.680Z,86.65
2023-08-03T23:32:25.521Z,86.21
2023-08-03T23:34:52.412Z,86.96
2023-08-03T23:37:19.275Z,87.07
2023-08-03T23:39:46.128Z,87.99
2023-08-03T23:42:17.119Z,88.68
2023-08-03T23:44:44.122Z,88.90
2023-08-03T23:47:11.032Z,90.22
2023-08-03T23:49:37.895Z,90.72
2023-08-03T23:52:05.150Z,90.76
2023-08-03T23:54:32.120Z,90.71
2023-08-03T23:57:00.041Z,90.43
2023-08-03T23:59:29.121Z,91.03
